KALO/ALO METAR and TAF weather

Enter ICAO airport designator
Station Type Date Time Source
KALO METAR 2019/04/18 19:54 UTC NOAA

KALO 181954Z 35022G27KT 10SM OVC037 12/03 A2980 RMK AO2 PK WND 34030/1855 SLP093 T01170028


Station Type Date Time Source
KALO Decoded METAR 2019/04/18 19:54 UTC NOAA

WATERLOO MUNICIPAL AIRPORT, IA, United States (KALO) 42-33N 92-24W 264M
Apr 18, 2019 - 03:54 PM EDT / 2019.04.18 1954 UTC
Wind: from the N (350 degrees) at 25 MPH (22 KT) gusting to 31 MPH (27 KT):0
Visibility: 10 mile(s):0
Sky conditions: overcast
Temperature: 53.1 F (11.7 C)
Dew Point: 37.0 F (2.8 C)
Relative Humidity: 54%
Pressure (altimeter): 29.8 in. Hg (1009 hPa)
ob: KALO 181954Z 35022G27KT 10SM OVC037 12/03 A2980 RMK AO2 PK WND 34030/1855 SLP093 T01170028
cycle: 20

Station Type Date Time Source
KALO TAF 2019/04/18 18:39 UTC NOAA

TAF KALO 181737Z 1818/1918 33018G26KT P6SM BKN025
FM182100 34017G24KT P6SM BKN035
FM190100 35009KT P6SM BKN045
FM191500 36014KT P6SM SKC

Example: see airport list